sensor_id;sensor_type;location;lat;lon;timestamp;temperature;humidity
51765;DHT22;37835;53.256;6.456;2022-12-29T00:01:34;9.90;99.90
51765;DHT22;37835;53.256;6.456;2022-12-29T00:04:01;9.90;99.90
51765;DHT22;37835;53.256;6.456;2022-12-29T00:06:27;9.90;99.90
51765;DHT22;37835;53.256;6.456;2022-12-29T00:08:52;9.90;99.90
51765;DHT22;37835;53.256;6.456;2022-12-29T00:11:21;9.90;99.90
51765;DHT22;37835;53.256;6.456;2022-12-29T00:13:47;9.90;99.90
51765;DHT22;37835;53.256;6.456;2022-12-29T00:16:32;9.90;99.90
51765;DHT22;37835;53.256;6.456;2022-12-29T00:18:58;9.90;99.90
51765;DHT22;37835;53.256;6.456;2022-12-29T00:21:24;9.90;99.90
51765;DHT22;37835;53.256;6.456;2022-12-29T00:24:21;9.90;99.90
51765;DHT22;37835;53.256;6.456;2022-12-29T00:27:03;9.90;99.90
51765;DHT22;37835;53.256;6.456;2022-12-29T00:29:51;10.00;99.90
51765;DHT22;37835;53.256;6.456;2022-12-29T00:32:36;10.00;99.90
51765;DHT22;37835;53.256;6.456;2022-12-29T00:35:33;10.00;99.90
51765;DHT22;37835;53.256;6.456;2022-12-29T00:38:04;10.10;99.90
51765;DHT22;37835;53.256;6.456;2022-12-29T00:40:49;9.30;99.90
51765;DHT22;37835;53.256;6.456;2022-12-29T00:43:33;10.10;99.90
51765;DHT22;37835;53.256;6.456;2022-12-29T00:46:17;10.10;99.90
51765;DHT22;37835;53.256;6.456;2022-12-29T00:48:43;10.40;99.90
51765;DHT22;37835;53.256;6.456;2022-12-29T00:51:27;10.40;99.90
51765;DHT22;37835;53.256;6.456;2022-12-29T00:53:53;10.20;99.90
51765;DHT22;37835;53.256;6.456;2022-12-29T00:56:18;10.20;99.90
51765;DHT22;37835;53.256;6.456;2022-12-29T00:58:44;10.20;99.90
51765;DHT22;37835;53.256;6.456;2022-12-29T01:01:09;10.20;99.90
51765;DHT22;37835;53.256;6.456;2022-12-29T01:03:36;10.30;99.90
51765;DHT22;37835;53.256;6.456;2022-12-29T01:06:06;10.30;99.90
51765;DHT22;37835;53.256;6.456;2022-12-29T01:08:32;10.30;99.90
51765;DHT22;37835;53.256;6.456;2022-12-29T01:11:08;10.30;99.90
51765;DHT22;37835;53.256;6.456;2022-12-29T01:13:35;10.30;99.90
51765;DHT22;37835;53.256;6.456;2022-12-29T01:16:01;10.40;99.90
51765;DHT22;37835;53.256;6.456;2022-12-29T01:18:27;10.30;99.90
51765;DHT22;37835;53.256;6.456;2022-12-29T01:21:06;10.30;99.90
51765;DHT22;37835;53.256;6.456;2022-12-29T01:23:32;10.10;99.90
51765;DHT22;37835;53.256;6.456;2022-12-29T01:26:08;10.40;99.90
51765;DHT22;37835;53.256;6.456;2022-12-29T01:28:34;10.30;99.90
51765;DHT22;37835;53.256;6.456;2022-12-29T01:31:01;10.30;99.90
51765;DHT22;37835;53.256;6.456;2022-12-29T01:33:26;10.30;99.90
51765;DHT22;37835;53.256;6.456;2022-12-29T01:35:52;10.40;99.90
51765;DHT22;37835;53.256;6.456;2022-12-29T01:38:18;10.40;99.90
51765;DHT22;37835;53.256;6.456;2022-12-29T01:40:46;10.30;99.90
51765;DHT22;37835;53.256;6.456;2022-12-29T01:43:13;10.30;99.90
51765;DHT22;37835;53.256;6.456;2022-12-29T01:45:45;10.30;99.90
51765;DHT22;37835;53.256;6.456;2022-12-29T01:48:13;10.40;99.90
51765;DHT22;37835;53.256;6.456;2022-12-29T01:50:43;10.30;99.90
51765;DHT22;37835;53.256;6.456;2022-12-29T01:53:15;10.50;99.90
51765;DHT22;37835;53.256;6.456;2022-12-29T01:55:45;10.30;99.90
51765;DHT22;37835;53.256;6.456;2022-12-29T01:58:14;10.20;99.90
51765;DHT22;37835;53.256;6.456;2022-12-29T02:00:41;10.20;99.90
51765;DHT22;37835;53.256;6.456;2022-12-29T02:03:07;10.20;99.90
51765;DHT22;37835;53.256;6.456;2022-12-29T02:06:25;10.20;99.90
51765;DHT22;37835;53.256;6.456;2022-12-29T02:08:27;10.20;99.90
51765;DHT22;37835;53.256;6.456;2022-12-29T02:10:55;10.20;99.90
51765;DHT22;37835;53.256;6.456;2022-12-29T02:13:20;10.10;99.90
51765;DHT22;37835;53.256;6.456;2022-12-29T02:16:01;10.10;99.90
51765;DHT22;37835;53.256;6.456;2022-12-29T02:18:56;9.80;99.90
51765;DHT22;37835;53.256;6.456;2022-12-29T02:32:52;10.00;99.90
51765;DHT22;37835;53.256;6.456;2022-12-29T02:38:55;9.90;99.90
51765;DHT22;37835;53.256;6.456;2022-12-29T02:46:54;9.90;99.90
51765;DHT22;37835;53.256;6.456;2022-12-29T02:52:31;10.00;99.90
51765;DHT22;37835;53.256;6.456;2022-12-29T02:54:59;9.90;99.90
51765;DHT22;37835;53.256;6.456;2022-12-29T03:00:07;10.00;99.90
51765;DHT22;37835;53.256;6.456;2022-12-29T03:08:45;10.00;99.90
51765;DHT22;37835;53.256;6.456;2022-12-29T03:10:58;10.00;99.90
51765;DHT22;37835;53.256;6.456;2022-12-29T03:13:47;10.00;99.90
51765;DHT22;37835;53.256;6.456;2022-12-29T03:19:15;10.10;99.90
51765;DHT22;37835;53.256;6.456;2022-12-29T03:21:46;9.60;99.90
51765;DHT22;37835;53.256;6.456;2022-12-29T03:24:38;10.10;99.90
51765;DHT22;37835;53.256;6.456;2022-12-29T03:27:07;10.10;99.90
51765;DHT22;37835;53.256;6.456;2022-12-29T03:29:39;10.20;99.90
51765;DHT22;37835;53.256;6.456;2022-12-29T03:32:07;10.10;99.90
51765;DHT22;37835;53.256;6.456;2022-12-29T03:34:34;10.10;99.90
51765;DHT22;37835;53.256;6.456;2022-12-29T03:37:05;10.10;99.90
51765;DHT22;37835;53.256;6.456;2022-12-29T03:39:32;10.10;99.90
51765;DHT22;37835;53.256;6.456;2022-12-29T03:42:06;10.10;99.90
51765;DHT22;37835;53.256;6.456;2022-12-29T03:44:40;11.10;99.90
51765;DHT22;37835;53.256;6.456;2022-12-29T03:47:07;10.00;99.90
51765;DHT22;37835;53.256;6.456;2022-12-29T03:49:33;10.00;99.90
51765;DHT22;37835;53.256;6.456;2022-12-29T03:51:59;10.00;99.90
51765;DHT22;37835;53.256;6.456;2022-12-29T03:54:24;8.60;99.90
51765;DHT22;37835;53.256;6.456;2022-12-29T03:56:50;9.90;99.90
51765;DHT22;37835;53.256;6.456;2022-12-29T03:59:16;10.30;99.90
51765;DHT22;37835;53.256;6.456;2022-12-29T04:01:41;9.80;99.90
51765;DHT22;37835;53.256;6.456;2022-12-29T04:04:07;10.10;99.90
51765;DHT22;37835;53.256;6.456;2022-12-29T04:06:33;9.80;99.90
51765;DHT22;37835;53.256;6.456;2022-12-29T04:08:58;8.70;99.90
51765;DHT22;37835;53.256;6.456;2022-12-29T04:11:24;9.70;99.90
51765;DHT22;37835;53.256;6.456;2022-12-29T04:13:50;9.70;99.90
51765;DHT22;37835;53.256;6.456;2022-12-29T04:16:15;9.70;99.90
51765;DHT22;37835;53.256;6.456;2022-12-29T04:18:41;9.70;99.90
51765;DHT22;37835;53.256;6.456;2022-12-29T04:21:07;9.70;99.90
51765;DHT22;37835;53.256;6.456;2022-12-29T04:23:35;10.30;99.90
51765;DHT22;37835;53.256;6.456;2022-12-29T04:26:01;9.80;99.90
51765;DHT22;37835;53.256;6.456;2022-12-29T04:28:27;10.50;99.90
51765;DHT22;37835;53.256;6.456;2022-12-29T04:30:53;9.70;99.90
51765;DHT22;37835;53.256;6.456;2022-12-29T04:33:19;9.10;99.90
51765;DHT22;37835;53.256;6.456;2022-12-29T04:35:45;10.50;99.90
51765;DHT22;37835;53.256;6.456;2022-12-29T04:38:11;9.70;99.90
51765;DHT22;37835;53.256;6.456;2022-12-29T04:40:42;9.70;99.90
51765;DHT22;37835;53.256;6.456;2022-12-29T04:43:08;9.70;99.90
51765;DHT22;37835;53.256;6.456;2022-12-29T04:45:34;9.70;99.90
51765;DHT22;37835;53.256;6.456;2022-12-29T04:47:59;9.70;99.90
51765;DHT22;37835;53.256;6.456;2022-12-29T04:50:25;11.00;99.90
51765;DHT22;37835;53.256;6.456;2022-12-29T04:52:51;9.70;99.90
51765;DHT22;37835;53.256;6.456;2022-12-29T04:55:16;9.60;99.90
51765;DHT22;37835;53.256;6.456;2022-12-29T04:57:42;9.60;99.90
51765;DHT22;37835;53.256;6.456;2022-12-29T05:00:08;9.60;99.90
51765;DHT22;37835;53.256;6.456;2022-12-29T05:02:37;9.50;99.90
51765;DHT22;37835;53.256;6.456;2022-12-29T05:05:03;9.50;99.90
51765;DHT22;37835;53.256;6.456;2022-12-29T05:07:29;9.50;99.90
51765;DHT22;37835;53.256;6.456;2022-12-29T05:09:55;9.40;99.90
51765;DHT22;37835;53.256;6.456;2022-12-29T05:12:21;9.40;99.90
51765;DHT22;37835;53.256;6.456;2022-12-29T05:14:46;9.40;99.90
51765;DHT22;37835;53.256;6.456;2022-12-29T05:17:12;9.40;99.90
51765;DHT22;37835;53.256;6.456;2022-12-29T05:19:37;8.60;99.90
51765;DHT22;37835;53.256;6.456;2022-12-29T05:22:04;9.30;99.90
51765;DHT22;37835;53.256;6.456;2022-12-29T05:24:29;9.30;99.90
51765;DHT22;37835;53.256;6.456;2022-12-29T05:26:55;9.20;99.90
51765;DHT22;37835;53.256;6.456;2022-12-29T05:29:21;9.20;99.90
51765;DHT22;37835;53.256;6.456;2022-12-29T05:31:46;9.60;99.90
51765;DHT22;37835;53.256;6.456;2022-12-29T05:34:12;10.60;99.90
51765;DHT22;37835;53.256;6.456;2022-12-29T05:36:37;8.20;99.90
51765;DHT22;37835;53.256;6.456;2022-12-29T05:39:03;8.90;99.90
51765;DHT22;37835;53.256;6.456;2022-12-29T05:41:29;9.00;99.90
51765;DHT22;37835;53.256;6.456;2022-12-29T05:43:55;9.10;99.90
51765;DHT22;37835;53.256;6.456;2022-12-29T05:46:20;9.00;99.90
51765;DHT22;37835;53.256;6.456;2022-12-29T05:48:46;8.40;99.90
51765;DHT22;37835;53.256;6.456;2022-12-29T05:51:11;9.00;99.90
51765;DHT22;37835;53.256;6.456;2022-12-29T05:53:37;9.00;99.90
51765;DHT22;37835;53.256;6.456;2022-12-29T05:56:03;9.00;99.90
51765;DHT22;37835;53.256;6.456;2022-12-29T05:58:28;9.00;99.90
51765;DHT22;37835;53.256;6.456;2022-12-29T06:00:54;9.00;99.90
51765;DHT22;37835;53.256;6.456;2022-12-29T06:03:19;9.00;99.90
51765;DHT22;37835;53.256;6.456;2022-12-29T06:05:45;9.10;99.90
51765;DHT22;37835;53.256;6.456;2022-12-29T06:08:11;9.10;99.90
51765;DHT22;37835;53.256;6.456;2022-12-29T06:10:37;9.20;99.90
51765;DHT22;37835;53.256;6.456;2022-12-29T06:13:02;7.70;99.90
51765;DHT22;37835;53.256;6.456;2022-12-29T06:15:34;9.10;99.90
51765;DHT22;37835;53.256;6.456;2022-12-29T06:17:59;9.10;99.90
51765;DHT22;37835;53.256;6.456;2022-12-29T06:20:25;9.10;99.90
51765;DHT22;37835;53.256;6.456;2022-12-29T06:22:51;9.20;99.90
51765;DHT22;37835;53.256;6.456;2022-12-29T06:25:16;9.20;99.90
51765;DHT22;37835;53.256;6.456;2022-12-29T06:27:42;9.20;99.90
51765;DHT22;37835;53.256;6.456;2022-12-29T06:30:08;9.10;99.90
51765;DHT22;37835;53.256;6.456;2022-12-29T06:32:35;9.20;99.90
51765;DHT22;37835;53.256;6.456;2022-12-29T06:35:01;9.10;99.90
51765;DHT22;37835;53.256;6.456;2022-12-29T06:37:27;9.10;99.90
51765;DHT22;37835;53.256;6.456;2022-12-29T06:39:52;8.80;99.90
51765;DHT22;37835;53.256;6.456;2022-12-29T06:42:18;9.10;99.90
51765;DHT22;37835;53.256;6.456;2022-12-29T06:44:43;9.10;99.90
51765;DHT22;37835;53.256;6.456;2022-12-29T06:47:09;9.10;99.90
51765;DHT22;37835;53.256;6.456;2022-12-29T06:49:35;9.10;99.90
51765;DHT22;37835;53.256;6.456;2022-12-29T06:52:00;9.00;99.90
51765;DHT22;37835;53.256;6.456;2022-12-29T06:54:29;9.00;99.90
51765;DHT22;37835;53.256;6.456;2022-12-29T06:56:55;9.00;99.90
51765;DHT22;37835;53.256;6.456;2022-12-29T06:59:20;9.00;99.90
51765;DHT22;37835;53.256;6.456;2022-12-29T07:01:46;9.00;99.90
51765;DHT22;37835;53.256;6.456;2022-12-29T07:04:11;9.00;99.90
51765;DHT22;37835;53.256;6.456;2022-12-29T07:06:37;9.30;99.90
51765;DHT22;37835;53.256;6.456;2022-12-29T07:09:03;8.80;99.90
51765;DHT22;37835;53.256;6.456;2022-12-29T07:11:28;8.90;99.90
51765;DHT22;37835;53.256;6.456;2022-12-29T07:13:54;8.90;99.90
51765;DHT22;37835;53.256;6.456;2022-12-29T07:16:19;8.90;99.90
51765;DHT22;37835;53.256;6.456;2022-12-29T07:18:45;8.80;99.90
51765;DHT22;37835;53.256;6.456;2022-12-29T07:21:11;8.90;99.90
51765;DHT22;37835;53.256;6.456;2022-12-29T07:23:37;8.90;99.90
51765;DHT22;37835;53.256;6.456;2022-12-29T07:26:07;8.90;99.90
51765;DHT22;37835;53.256;6.456;2022-12-29T07:28:34;8.90;99.90
51765;DHT22;37835;53.256;6.456;2022-12-29T07:31:00;8.90;99.90
51765;DHT22;37835;53.256;6.456;2022-12-29T07:33:28;8.70;99.90
51765;DHT22;37835;53.256;6.456;2022-12-29T07:35:54;9.00;99.90
51765;DHT22;37835;53.256;6.456;2022-12-29T07:38:20;9.50;99.90
51765;DHT22;37835;53.256;6.456;2022-12-29T07:40:45;9.00;99.90
51765;DHT22;37835;53.256;6.456;2022-12-29T07:43:11;9.10;99.90
51765;DHT22;37835;53.256;6.456;2022-12-29T07:45:37;9.00;99.90
51765;DHT22;37835;53.256;6.456;2022-12-29T07:48:03;9.10;99.90
51765;DHT22;37835;53.256;6.456;2022-12-29T07:50:29;10.90;99.90
51765;DHT22;37835;53.256;6.456;2022-12-29T07:52:55;9.10;99.90
51765;DHT22;37835;53.256;6.456;2022-12-29T07:55:20;9.10;99.90
51765;DHT22;37835;53.256;6.456;2022-12-29T07:57:46;9.20;99.90
51765;DHT22;37835;53.256;6.456;2022-12-29T08:00:11;9.10;99.90
51765;DHT22;37835;53.256;6.456;2022-12-29T08:02:37;9.20;99.90
51765;DHT22;37835;53.256;6.456;2022-12-29T08:05:03;9.20;99.90
51765;DHT22;37835;53.256;6.456;2022-12-29T08:09:55;7.90;99.90
51765;DHT22;37835;53.256;6.456;2022-12-29T08:12:21;9.20;99.90
51765;DHT22;37835;53.256;6.456;2022-12-29T08:14:46;9.20;99.90
51765;DHT22;37835;53.256;6.456;2022-12-29T08:17:12;9.20;99.90
51765;DHT22;37835;53.256;6.456;2022-12-29T08:19:38;9.20;99.90
51765;DHT22;37835;53.256;6.456;2022-12-29T08:22:03;9.20;99.90
51765;DHT22;37835;53.256;6.456;2022-12-29T08:24:29;10.00;99.90
51765;DHT22;37835;53.256;6.456;2022-12-29T08:26:54;9.20;99.90
51765;DHT22;37835;53.256;6.456;2022-12-29T08:29:20;7.90;99.90
51765;DHT22;37835;53.256;6.456;2022-12-29T08:31:47;9.20;99.90
51765;DHT22;37835;53.256;6.456;2022-12-29T08:34:12;9.20;99.90
51765;DHT22;37835;53.256;6.456;2022-12-29T08:36:38;9.80;99.90
51765;DHT22;37835;53.256;6.456;2022-12-29T08:39:04;9.10;99.90
51765;DHT22;37835;53.256;6.456;2022-12-29T08:41:29;9.20;99.90
51765;DHT22;37835;53.256;6.456;2022-12-29T08:43:55;9.20;99.90
51765;DHT22;37835;53.256;6.456;2022-12-29T08:46:20;9.20;99.90
51765;DHT22;37835;53.256;6.456;2022-12-29T08:48:46;9.10;99.90
51765;DHT22;37835;53.256;6.456;2022-12-29T08:51:11;9.10;99.90
51765;DHT22;37835;53.256;6.456;2022-12-29T08:53:37;9.10;99.90
51765;DHT22;37835;53.256;6.456;2022-12-29T08:56:03;9.20;99.90
51765;DHT22;37835;53.256;6.456;2022-12-29T08:58:29;9.10;99.90
51765;DHT22;37835;53.256;6.456;2022-12-29T09:00:58;9.10;99.90
51765;DHT22;37835;53.256;6.456;2022-12-29T09:03:24;9.10;99.90
51765;DHT22;37835;53.256;6.456;2022-12-29T09:05:54;9.10;99.90
51765;DHT22;37835;53.256;6.456;2022-12-29T09:08:20;9.10;99.90
51765;DHT22;37835;53.256;6.456;2022-12-29T09:10:46;9.10;99.90
51765;DHT22;37835;53.256;6.456;2022-12-29T09:13:13;9.10;99.90
51765;DHT22;37835;53.256;6.456;2022-12-29T09:15:39;9.10;99.90
51765;DHT22;37835;53.256;6.456;2022-12-29T09:18:05;8.90;99.90
51765;DHT22;37835;53.256;6.456;2022-12-29T09:20:31;9.10;99.90
51765;DHT22;37835;53.256;6.456;2022-12-29T09:22:57;9.00;99.90
51765;DHT22;37835;53.256;6.456;2022-12-29T09:27:51;9.00;99.90
51765;DHT22;37835;53.256;6.456;2022-12-29T09:30:20;9.00;99.90
51765;DHT22;37835;53.256;6.456;2022-12-29T09:32:46;9.00;99.90
51765;DHT22;37835;53.256;6.456;2022-12-29T09:35:13;9.00;99.90
51765;DHT22;37835;53.256;6.456;2022-12-29T09:37:39;9.10;99.90
51765;DHT22;37835;53.256;6.456;2022-12-29T09:40:06;9.00;99.90
51765;DHT22;37835;53.256;6.456;2022-12-29T09:42:50;9.00;99.90
51765;DHT22;37835;53.256;6.456;2022-12-29T09:45:27;8.90;99.90
51765;DHT22;37835;53.256;6.456;2022-12-29T09:47:54;9.00;99.90
51765;DHT22;37835;53.256;6.456;2022-12-29T09:50:36;9.50;99.90
51765;DHT22;37835;53.256;6.456;2022-12-29T09:53:08;10.80;99.90
51765;DHT22;37835;53.256;6.456;2022-12-29T09:55:49;8.90;99.90
51765;DHT22;37835;53.256;6.456;2022-12-29T10:00:54;9.10;99.90
51765;DHT22;37835;53.256;6.456;2022-12-29T10:03:24;8.90;99.90
51765;DHT22;37835;53.256;6.456;2022-12-29T10:05:59;8.90;99.90
51765;DHT22;37835;53.256;6.456;2022-12-29T10:08:41;8.90;99.90
51765;DHT22;37835;53.256;6.456;2022-12-29T10:14:33;8.90;99.90
51765;DHT22;37835;53.256;6.456;2022-12-29T10:22:53;8.80;99.90
51765;DHT22;37835;53.256;6.456;2022-12-29T10:25:26;8.80;99.90
51765;DHT22;37835;53.256;6.456;2022-12-29T10:27:57;8.80;99.90
51765;DHT22;37835;53.256;6.456;2022-12-29T10:30:24;8.80;99.90
51765;DHT22;37835;53.256;6.456;2022-12-29T10:32:53;8.70;99.90
51765;DHT22;37835;53.256;6.456;2022-12-29T10:35:26;8.70;99.90
51765;DHT22;37835;53.256;6.456;2022-12-29T10:38:05;8.70;99.90
51765;DHT22;37835;53.256;6.456;2022-12-29T10:40:48;8.80;99.90
51765;DHT22;37835;53.256;6.456;2022-12-29T10:45:47;8.80;99.90
51765;DHT22;37835;53.256;6.456;2022-12-29T10:48:21;7.90;99.90
51765;DHT22;37835;53.256;6.456;2022-12-29T10:50:48;8.70;99.90
51765;DHT22;37835;53.256;6.456;2022-12-29T10:53:22;8.70;99.90
51765;DHT22;37835;53.256;6.456;2022-12-29T10:55:49;8.80;99.90
51765;DHT22;37835;53.256;6.456;2022-12-29T10:58:16;8.80;99.90
51765;DHT22;37835;53.256;6.456;2022-12-29T11:00:51;8.80;99.90
51765;DHT22;37835;53.256;6.456;2022-12-29T11:06:23;8.80;99.90
51765;DHT22;37835;53.256;6.456;2022-12-29T11:08:58;8.80;99.90
51765;DHT22;37835;53.256;6.456;2022-12-29T11:11:33;8.80;99.90
51765;DHT22;37835;53.256;6.456;2022-12-29T11:16:38;8.80;99.90
51765;DHT22;37835;53.256;6.456;2022-12-29T11:19:04;8.80;99.90
51765;DHT22;37835;53.256;6.456;2022-12-29T11:21:38;8.80;99.90
51765;DHT22;37835;53.256;6.456;2022-12-29T11:24:25;8.80;99.90
51765;DHT22;37835;53.256;6.456;2022-12-29T11:26:55;8.80;99.90
51765;DHT22;37835;53.256;6.456;2022-12-29T11:29:27;8.80;99.90
51765;DHT22;37835;53.256;6.456;2022-12-29T11:31:57;8.80;99.90
51765;DHT22;37835;53.256;6.456;2022-12-29T11:34:35;8.80;99.90
51765;DHT22;37835;53.256;6.456;2022-12-29T11:37:12;8.90;99.90
51765;DHT22;37835;53.256;6.456;2022-12-29T11:42:15;8.90;99.90
51765;DHT22;37835;53.256;6.456;2022-12-29T11:44:47;10.00;99.90
51765;DHT22;37835;53.256;6.456;2022-12-29T11:47:22;8.90;99.90
51765;DHT22;37835;53.256;6.456;2022-12-29T11:49:50;8.90;99.90
51765;DHT22;37835;53.256;6.456;2022-12-29T11:52:22;8.90;99.90
51765;DHT22;37835;53.256;6.456;2022-12-29T11:54:49;8.80;99.90
51765;DHT22;37835;53.256;6.456;2022-12-29T11:57:16;8.90;99.90
51765;DHT22;37835;53.256;6.456;2022-12-29T11:59:50;8.90;99.90
51765;DHT22;37835;53.256;6.456;2022-12-29T12:05:27;8.90;99.90
51765;DHT22;37835;53.256;6.456;2022-12-29T12:08:01;8.90;99.90
51765;DHT22;37835;53.256;6.456;2022-12-29T12:10:33;8.90;99.90
51765;DHT22;37835;53.256;6.456;2022-12-29T12:15:57;8.90;99.90
51765;DHT22;37835;53.256;6.456;2022-12-29T12:18:45;8.90;99.90
51765;DHT22;37835;53.256;6.456;2022-12-29T12:21:39;8.90;99.90
51765;DHT22;37835;53.256;6.456;2022-12-29T12:24:34;9.00;99.90
51765;DHT22;37835;53.256;6.456;2022-12-29T12:27:09;8.90;99.90
51765;DHT22;37835;53.256;6.456;2022-12-29T12:29:57;8.90;99.90
51765;DHT22;37835;53.256;6.456;2022-12-29T12:32:39;9.00;99.90
51765;DHT22;37835;53.256;6.456;2022-12-29T12:35:14;9.10;99.90
51765;DHT22;37835;53.256;6.456;2022-12-29T12:38:04;9.10;99.90
51765;DHT22;37835;53.256;6.456;2022-12-29T12:40:58;9.10;99.90
51765;DHT22;37835;53.256;6.456;2022-12-29T12:43:39;9.10;99.90
51765;DHT22;37835;53.256;6.456;2022-12-29T12:46:31;9.10;99.90
51765;DHT22;37835;53.256;6.456;2022-12-29T12:52:21;9.10;99.90
51765;DHT22;37835;53.256;6.456;2022-12-29T12:55:18;9.10;99.90
51765;DHT22;37835;53.256;6.456;2022-12-29T13:00:28;9.00;99.90
51765;DHT22;37835;53.256;6.456;2022-12-29T13:05:53;9.00;99.90
51765;DHT22;37835;53.256;6.456;2022-12-29T13:14:48;9.00;99.90
51765;DHT22;37835;53.256;6.456;2022-12-29T13:22:33;9.10;99.90
51765;DHT22;37835;53.256;6.456;2022-12-29T13:30:22;9.10;99.90
51765;DHT22;37835;53.256;6.456;2022-12-29T13:35:56;9.10;99.90
51765;DHT22;37835;53.256;6.456;2022-12-29T13:40:57;9.00;99.90
51765;DHT22;37835;53.256;6.456;2022-12-29T13:43:25;9.00;99.90
51765;DHT22;37835;53.256;6.456;2022-12-29T13:46:21;8.90;99.90
51765;DHT22;37835;53.256;6.456;2022-12-29T13:51:42;8.80;99.90
51765;DHT22;37835;53.256;6.456;2022-12-29T13:54:47;8.80;99.90
51765;DHT22;37835;53.256;6.456;2022-12-29T13:57:38;8.70;99.90
51765;DHT22;37835;53.256;6.456;2022-12-29T14:00:19;8.70;99.90
51765;DHT22;37835;53.256;6.456;2022-12-29T14:07:59;8.80;99.90
51765;DHT22;37835;53.256;6.456;2022-12-29T14:10:46;8.80;99.90
51765;DHT22;37835;53.256;6.456;2022-12-29T14:13:19;8.80;99.90
51765;DHT22;37835;53.256;6.456;2022-12-29T14:15:54;8.90;99.90
51765;DHT22;37835;53.256;6.456;2022-12-29T14:18:28;8.90;99.90
51765;DHT22;37835;53.256;6.456;2022-12-29T14:21:10;8.80;99.90
51765;DHT22;37835;53.256;6.456;2022-12-29T14:23:45;8.80;99.90
51765;DHT22;37835;53.256;6.456;2022-12-29T14:26:14;8.80;99.90
51765;DHT22;37835;53.256;6.456;2022-12-29T14:28:47;8.80;99.90
51765;DHT22;37835;53.256;6.456;2022-12-29T14:36:43;8.70;99.90
51765;DHT22;37835;53.256;6.456;2022-12-29T14:44:34;8.60;99.90
51765;DHT22;37835;53.256;6.456;2022-12-29T14:49:55;8.50;99.90
51765;DHT22;37835;53.256;6.456;2022-12-29T14:52:25;8.40;99.90
51765;DHT22;37835;53.256;6.456;2022-12-29T14:57:33;8.40;99.90
51765;DHT22;37835;53.256;6.456;2022-12-29T15:00:16;8.30;99.90
51765;DHT22;37835;53.256;6.456;2022-12-29T15:02:47;8.30;99.90
51765;DHT22;37835;53.256;6.456;2022-12-29T15:05:35;8.30;99.90
51765;DHT22;37835;53.256;6.456;2022-12-29T15:08:03;8.20;99.90
51765;DHT22;37835;53.256;6.456;2022-12-29T15:10:42;8.20;99.90
51765;DHT22;37835;53.256;6.456;2022-12-29T15:13:21;8.10;99.90
51765;DHT22;37835;53.256;6.456;2022-12-29T15:15:47;8.10;99.90
51765;DHT22;37835;53.256;6.456;2022-12-29T15:20:55;8.00;99.90
51765;DHT22;37835;53.256;6.456;2022-12-29T15:23:22;8.00;99.90
51765;DHT22;37835;53.256;6.456;2022-12-29T15:28:13;8.10;99.90
51765;DHT22;37835;53.256;6.456;2022-12-29T15:31:03;7.90;99.90
51765;DHT22;37835;53.256;6.456;2022-12-29T15:33:29;7.90;99.90
51765;DHT22;37835;53.256;6.456;2022-12-29T15:35:56;7.90;99.90
51765;DHT22;37835;53.256;6.456;2022-12-29T15:38:23;7.90;99.90
51765;DHT22;37835;53.256;6.456;2022-12-29T15:41:11;7.90;99.90
51765;DHT22;37835;53.256;6.456;2022-12-29T15:46:07;7.80;99.90
51765;DHT22;37835;53.256;6.456;2022-12-29T15:48:33;7.80;99.90
51765;DHT22;37835;53.256;6.456;2022-12-29T15:50:58;7.80;99.90
51765;DHT22;37835;53.256;6.456;2022-12-29T15:53:30;7.80;99.90
51765;DHT22;37835;53.256;6.456;2022-12-29T15:55:58;7.80;99.90
51765;DHT22;37835;53.256;6.456;2022-12-29T15:58:27;7.70;99.90
51765;DHT22;37835;53.256;6.456;2022-12-29T16:00:59;7.70;99.90
51765;DHT22;37835;53.256;6.456;2022-12-29T16:03:27;7.70;99.90
51765;DHT22;37835;53.256;6.456;2022-12-29T16:06:06;7.70;99.90
51765;DHT22;37835;53.256;6.456;2022-12-29T16:08:34;7.70;99.90
51765;DHT22;37835;53.256;6.456;2022-12-29T16:11:17;7.70;99.90
51765;DHT22;37835;53.256;6.456;2022-12-29T16:13:45;7.70;99.90
51765;DHT22;37835;53.256;6.456;2022-12-29T16:16:18;7.70;99.90
51765;DHT22;37835;53.256;6.456;2022-12-29T16:18:44;7.70;99.90
51765;DHT22;37835;53.256;6.456;2022-12-29T16:21:24;7.80;99.90
51765;DHT22;37835;53.256;6.456;2022-12-29T16:23:52;7.80;99.90
51765;DHT22;37835;53.256;6.456;2022-12-29T16:26:20;7.80;99.90
51765;DHT22;37835;53.256;6.456;2022-12-29T16:28:50;7.80;99.90
51765;DHT22;37835;53.256;6.456;2022-12-29T16:31:36;7.70;99.90
51765;DHT22;37835;53.256;6.456;2022-12-29T16:34:19;7.70;99.90
51765;DHT22;37835;53.256;6.456;2022-12-29T16:36:54;6.70;99.90
51765;DHT22;37835;53.256;6.456;2022-12-29T16:39:21;7.60;99.90
51765;DHT22;37835;53.256;6.456;2022-12-29T16:41:50;7.60;99.90
51765;DHT22;37835;53.256;6.456;2022-12-29T16:49:36;7.50;99.90
51765;DHT22;37835;53.256;6.456;2022-12-29T16:52:12;7.40;99.90
51765;DHT22;37835;53.256;6.456;2022-12-29T16:54:39;7.30;99.90
51765;DHT22;37835;53.256;6.456;2022-12-29T16:57:06;7.30;99.90
51765;DHT22;37835;53.256;6.456;2022-12-29T16:59:35;7.20;99.90
51765;DHT22;37835;53.256;6.456;2022-12-29T17:02:14;6.20;99.90
51765;DHT22;37835;53.256;6.456;2022-12-29T17:04:41;7.10;99.90
51765;DHT22;37835;53.256;6.456;2022-12-29T17:07:17;7.10;99.90
51765;DHT22;37835;53.256;6.456;2022-12-29T17:09:43;8.40;99.90
51765;DHT22;37835;53.256;6.456;2022-12-29T17:12:14;7.00;99.90
51765;DHT22;37835;53.256;6.456;2022-12-29T17:14:45;7.00;99.90
51765;DHT22;37835;53.256;6.456;2022-12-29T17:17:32;7.00;99.90
51765;DHT22;37835;53.256;6.456;2022-12-29T17:20:28;7.00;99.90
51765;DHT22;37835;53.256;6.456;2022-12-29T17:22:54;7.00;99.90
51765;DHT22;37835;53.256;6.456;2022-12-29T17:25:26;7.00;99.90
51765;DHT22;37835;53.256;6.456;2022-12-29T17:27:54;7.00;99.90
51765;DHT22;37835;53.256;6.456;2022-12-29T17:30:23;7.00;99.90
51765;DHT22;37835;53.256;6.456;2022-12-29T17:32:55;7.00;99.90
51765;DHT22;37835;53.256;6.456;2022-12-29T17:35:23;7.00;99.90
51765;DHT22;37835;53.256;6.456;2022-12-29T17:37:49;7.00;99.90
51765;DHT22;37835;53.256;6.456;2022-12-29T17:40:18;7.00;99.90
51765;DHT22;37835;53.256;6.456;2022-12-29T17:42:46;7.00;99.90
51765;DHT22;37835;53.256;6.456;2022-12-29T17:45:20;7.10;99.90
51765;DHT22;37835;53.256;6.456;2022-12-29T17:47:47;7.10;99.90
51765;DHT22;37835;53.256;6.456;2022-12-29T17:50:21;7.10;99.90
51765;DHT22;37835;53.256;6.456;2022-12-29T17:52:51;7.10;99.90
51765;DHT22;37835;53.256;6.456;2022-12-29T17:55:19;7.20;99.90
51765;DHT22;37835;53.256;6.456;2022-12-29T17:57:45;7.20;99.90
51765;DHT22;37835;53.256;6.456;2022-12-29T18:00:20;7.20;99.90
51765;DHT22;37835;53.256;6.456;2022-12-29T18:02:47;7.30;99.90
51765;DHT22;37835;53.256;6.456;2022-12-29T18:05:25;7.30;99.90
51765;DHT22;37835;53.256;6.456;2022-12-29T18:07:52;7.30;99.90
51765;DHT22;37835;53.256;6.456;2022-12-29T18:10:19;7.30;99.90
51765;DHT22;37835;53.256;6.456;2022-12-29T18:12:50;7.30;99.90
51765;DHT22;37835;53.256;6.456;2022-12-29T18:15:31;7.30;99.90
51765;DHT22;37835;53.256;6.456;2022-12-29T18:18:11;7.30;99.90
51765;DHT22;37835;53.256;6.456;2022-12-29T18:20:39;7.30;99.90